Terminal Aerodrome Forecast
Issued by NWS Wilmington, NC

Home | Current Version | Previous Version | Text Only | Print | Product List | Glossary On
Versions: 1 2 3 4 5 6 7 8 9 10 11 12 13 14 15 16 17 18 19 20 21 22 23 24 25 26
563
FTUS42 KILM 200532
TAFILM
TAF
KILM 200532Z 2006/2106 VRB03KT 6SM BR VCSH FEW007 SCT015 OVC060
      TEMPO 2006/2009 1/2SM FG BKN002
     FM200900 14003KT 2SM BR VCSH SCT002 BKN007 OVC010
      TEMPO 2009/2012 1/2SM FG BKN002
     FM201400 17008KT P6SM BKN035
     FM210200 17003KT P6SM SCT025 BKN040=

USA.gov is the U.S. government's official web portal to all federal, state and local government web resources and services.